sensor_id;sensor_type;location;lat;lon;timestamp;pressure;altitude;pressure_sealevel;temperature;humidity
53699;BME280;68408;53.952;27.612;2023-08-06T00:00:29;1007.8;;;24;67.5
53699;BME280;68408;53.952;27.612;2023-08-06T00:05:43;1007.8;;;24;67.6
53699;BME280;68408;53.952;27.612;2023-08-06T00:10:53;1007.7;;;23.9;67.7
53699;BME280;68408;53.952;27.612;2023-08-06T00:15:29;1007.7;;;23.9;67.8
53699;BME280;68408;53.952;27.612;2023-08-06T00:20:21;1007.7;;;23.9;67.8
53699;BME280;68408;53.952;27.612;2023-08-06T00:25:53;1007.6;;;23.8;67.9
53699;BME280;68408;53.952;27.612;2023-08-06T00:30:15;1007.6;;;23.8;68
53699;BME280;68408;53.952;27.612;2023-08-06T00:35:31;1007.6;;;23.8;67.9
53699;BME280;68408;53.952;27.612;2023-08-06T00:40:21;1007.6;;;23.8;67.9
53699;BME280;68408;53.952;27.612;2023-08-06T00:45:43;1007.5;;;23.8;68.1
53699;BME280;68408;53.952;27.612;2023-08-06T00:50:23;1007.5;;;23.7;68.3
53699;BME280;68408;53.952;27.612;2023-08-06T00:55:21;1007.4;;;23.7;68.4
53699;BME280;68408;53.952;27.612;2023-08-06T01:00:53;1007.4;;;23.6;68.5
53699;BME280;68408;53.952;27.612;2023-08-06T01:05:43;1007.4;;;23.6;68.6
53699;BME280;68408;53.952;27.612;2023-08-06T01:10:32;1007.4;;;23.5;68.9
53699;BME280;68408;53.952;27.612;2023-08-06T01:15:35;1007.4;;;23.5;69
53699;BME280;68408;53.952;27.612;2023-08-06T01:20:53;1007.4;;;23.5;69.1
53699;BME280;68408;53.952;27.612;2023-08-06T01:25:29;1007.3;;;23.4;69.3
53699;BME280;68408;53.952;27.612;2023-08-06T01:30:24;1007.3;;;23.4;69.4
53699;BME280;68408;53.952;27.612;2023-08-06T01:35:53;1007.2;;;23.4;69.5
53699;BME280;68408;53.952;27.612;2023-08-06T01:40:43;1007.3;;;23.3;69.6
53699;BME280;68408;53.952;27.612;2023-08-06T01:45:53;1007.2;;;23.3;69.7
53699;BME280;68408;53.952;27.612;2023-08-06T01:50:43;1007.2;;;23.3;69.7
53699;BME280;68408;53.952;27.612;2023-08-06T01:55:21;1007.2;;;23.2;69.9
53699;BME280;68408;53.952;27.612;2023-08-06T02:00:21;1007.3;;;23.2;69.9
53699;BME280;68408;53.952;27.612;2023-08-06T02:05:53;1007.3;;;23.2;69.9
53699;BME280;68408;53.952;27.612;2023-08-06T02:10:43;1007.2;;;23.2;70
53699;BME280;68408;53.952;27.612;2023-08-06T02:15:42;1007.2;;;23.1;70.1
53699;BME280;68408;53.952;27.612;2023-08-06T02:20:56;1007.3;;;23.1;70.2
53699;BME280;68408;53.952;27.612;2023-08-06T02:25:41;1007.2;;;23.1;70.3
53699;BME280;68408;53.952;27.612;2023-08-06T02:30:15;1007.3;;;23.1;70.3
53699;BME280;68408;53.952;27.612;2023-08-06T02:35:21;1007.2;;;23.1;70.4
53699;BME280;68408;53.952;27.612;2023-08-06T02:40:53;1007.2;;;23;70.5
53699;BME280;68408;53.952;27.612;2023-08-06T02:45:56;1007.3;;;23;70.6
53699;BME280;68408;53.952;27.612;2023-08-06T02:50:53;1007.3;;;23;70.6
53699;BME280;68408;53.952;27.612;2023-08-06T02:55:53;1007.3;;;23.5;69.3
53699;BME280;68408;53.952;27.612;2023-08-06T03:00:17;1007.3;;;24.2;67.2
53699;BME280;68408;53.952;27.612;2023-08-06T03:05:53;1007.2;;;24.1;66.9
53699;BME280;68408;53.952;27.612;2023-08-06T03:10:17;1007.3;;;23.8;67.8
53699;BME280;68408;53.952;27.612;2023-08-06T03:15:53;1007.3;;;23.7;68.2
53699;BME280;68408;53.952;27.612;2023-08-06T03:20:39;1007.3;;;23.7;68.3
53699;BME280;68408;53.952;27.612;2023-08-06T03:25:29;1007.2;;;23.6;68.4
53699;BME280;68408;53.952;27.612;2023-08-06T03:30:58;1007.2;;;23.6;68.4
53699;BME280;68408;53.952;27.612;2023-08-06T03:35:15;1007.2;;;23.6;68.3
53699;BME280;68408;53.952;27.612;2023-08-06T03:40:21;1007.1;;;23.7;68.1
53699;BME280;68408;53.952;27.612;2023-08-06T03:45:39;1007.1;;;23.7;67.9
53699;BME280;68408;53.952;27.612;2023-08-06T03:50:37;1007.1;;;23.8;67.7
53699;BME280;68408;53.952;27.612;2023-08-06T03:55:39;1007.1;;;24;67.3
53699;BME280;68408;53.952;27.612;2023-08-06T04:00:43;1007.1;;;24.1;66.9
53699;BME280;68408;53.952;27.612;2023-08-06T04:05:37;1007;;;24.2;66.5
53699;BME280;68408;53.952;27.612;2023-08-06T04:10:29;1006.9;;;24.3;66
53699;BME280;68408;53.952;27.612;2023-08-06T04:15:17;1006.9;;;24.4;65.6
53699;BME280;68408;53.952;27.612;2023-08-06T04:20:15;1006.8;;;24.6;65.1
53699;BME280;68408;53.952;27.612;2023-08-06T04:25:15;1006.8;;;24.7;64.5
53699;BME280;68408;53.952;27.612;2023-08-06T04:30:39;1006.8;;;24.9;64
53699;BME280;68408;53.952;27.612;2023-08-06T04:35:54;1006.7;;;25;63.4
53699;BME280;68408;53.952;27.612;2023-08-06T04:40:33;1006.7;;;25.1;63.1
53699;BME280;68408;53.952;27.612;2023-08-06T04:45:15;1006.7;;;25.2;62.7
53699;BME280;68408;53.952;27.612;2023-08-06T04:50:42;1006.7;;;25.3;62.3
53699;BME280;68408;53.952;27.612;2023-08-06T04:55:29;1006.7;;;25.5;61.7
53699;BME280;68408;53.952;27.612;2023-08-06T05:00:29;1006.7;;;25.6;61
53699;BME280;68408;53.952;27.612;2023-08-06T05:05:43;1006.6;;;25.8;60.8
53699;BME280;68408;53.952;27.612;2023-08-06T05:10:53;1006.5;;;25.8;60.1
53699;BME280;68408;53.952;27.612;2023-08-06T05:15:23;1006.5;;;26;60
53699;BME280;68408;53.952;27.612;2023-08-06T05:20:15;1006.5;;;26.3;59.2
53699;BME280;68408;53.952;27.612;2023-08-06T05:25:53;1006.4;;;26.5;58.6
53699;BME280;68408;53.952;27.612;2023-08-06T05:30:43;1006.3;;;26.8;57.3
53699;BME280;68408;53.952;27.612;2023-08-06T05:35:25;1006.3;;;27.1;56.9
53699;BME280;68408;53.952;27.612;2023-08-06T05:40:33;1006.2;;;27.2;56.4
53699;BME280;68408;53.952;27.612;2023-08-06T05:45:44;1006.2;;;27.3;56.4
53699;BME280;68408;53.952;27.612;2023-08-06T05:50:29;1006.1;;;27.4;56.2
53699;BME280;68408;53.952;27.612;2023-08-06T05:55:21;1006.1;;;27.3;56.3
53699;BME280;68408;53.952;27.612;2023-08-06T06:00:43;1006;;;27.2;56.2
53699;BME280;68408;53.952;27.612;2023-08-06T06:05:43;1006;;;27.3;55.8
53699;BME280;68408;53.952;27.612;2023-08-06T06:10:53;1005.9;;;27.2;56.1
53699;BME280;68408;53.952;27.612;2023-08-06T06:15:33;1005.9;;;27.1;56.7
53699;BME280;68408;53.952;27.612;2023-08-06T06:20:33;1005.8;;;27.1;56.4
53699;BME280;68408;53.952;27.612;2023-08-06T06:25:15;1005.8;;;27.2;56.2
53699;BME280;68408;53.952;27.612;2023-08-06T06:30:53;1005.8;;;27.2;56.3
53699;BME280;68408;53.952;27.612;2023-08-06T06:35:43;1005.8;;;27.2;56.4
53699;BME280;68408;53.952;27.612;2023-08-06T06:40:43;1005.7;;;27.5;55.8
53699;BME280;68408;53.952;27.612;2023-08-06T06:45:53;1005.6;;;27.7;55.8
53699;BME280;68408;53.952;27.612;2023-08-06T06:50:25;1005.5;;;27.8;54.8
53699;BME280;68408;53.952;27.612;2023-08-06T06:55:21;1005.5;;;28;54.9
53699;BME280;68408;53.952;27.612;2023-08-06T07:00:15;1005.5;;;28.2;54.2
53699;BME280;68408;53.952;27.612;2023-08-06T07:05:56;1005.5;;;28.3;54
53699;BME280;68408;53.952;27.612;2023-08-06T07:10:40;1005.5;;;28.4;53.3
53699;BME280;68408;53.952;27.612;2023-08-06T07:15:53;1005.6;;;28.7;52.7
53699;BME280;68408;53.952;27.612;2023-08-06T07:20:53;1005.5;;;28.9;52.2
53699;BME280;68408;53.952;27.612;2023-08-06T07:25:35;1005.5;;;29;52.2
53699;BME280;68408;53.952;27.612;2023-08-06T07:30:39;1005.4;;;29.3;51.3
53699;BME280;68408;53.952;27.612;2023-08-06T07:35:43;1005.3;;;29.2;51.6
53699;BME280;68408;53.952;27.612;2023-08-06T07:40:53;1005.2;;;29.4;51.1
53699;BME280;68408;53.952;27.612;2023-08-06T07:45:39;1005.2;;;29.4;51.1
53699;BME280;68408;53.952;27.612;2023-08-06T07:50:15;1005.2;;;29.4;51.5
53699;BME280;68408;53.952;27.612;2023-08-06T07:55:53;1005.1;;;29.6;50.5
53699;BME280;68408;53.952;27.612;2023-08-06T08:00:43;1005.1;;;29.6;50.8
53699;BME280;68408;53.952;27.612;2023-08-06T08:05:15;1005.1;;;29.7;50.3
53699;BME280;68408;53.952;27.612;2023-08-06T08:10:15;1005;;;29.9;50.4
53699;BME280;68408;53.952;27.612;2023-08-06T08:15:39;1005;;;30;49.5
53699;BME280;68408;53.952;27.612;2023-08-06T08:20:39;1005;;;29.9;49.4
53699;BME280;68408;53.952;27.612;2023-08-06T08:25:25;1005;;;30;49.6
53699;BME280;68408;53.952;27.612;2023-08-06T08:30:15;1004.9;;;30.1;49.6
53699;BME280;68408;53.952;27.612;2023-08-06T08:35:15;1004.9;;;30.3;49.5
53699;BME280;68408;53.952;27.612;2023-08-06T08:40:23;1004.8;;;30.5;49.1
53699;BME280;68408;53.952;27.612;2023-08-06T08:45:17;1004.7;;;30.5;48.5
53699;BME280;68408;53.952;27.612;2023-08-06T08:50:23;1004.7;;;30.5;48.2
53699;BME280;68408;53.952;27.612;2023-08-06T08:55:39;1004.7;;;30.5;48.3
53699;BME280;68408;53.952;27.612;2023-08-06T09:00:53;1004.7;;;30.7;47.6
53699;BME280;68408;53.952;27.612;2023-08-06T09:05:43;1004.7;;;30.7;47.5
53699;BME280;68408;53.952;27.612;2023-08-06T09:10:16;1004.6;;;30.9;47.5
53699;BME280;68408;53.952;27.612;2023-08-06T09:15:39;1004.5;;;31.2;46.9
53699;BME280;68408;53.952;27.612;2023-08-06T09:20:29;1004.4;;;31.3;46.1
53699;BME280;68408;53.952;27.612;2023-08-06T09:25:20;1004.4;;;31.3;45.9
53699;BME280;68408;53.952;27.612;2023-08-06T09:30:43;1004.3;;;31.5;45.4
53699;BME280;68408;53.952;27.612;2023-08-06T09:35:53;1004.3;;;31.7;45
53699;BME280;68408;53.952;27.612;2023-08-06T09:40:24;1004.2;;;31.8;44.5
53699;BME280;68408;53.952;27.612;2023-08-06T09:45:34;1004.2;;;31.8;43.3
53699;BME280;68408;53.952;27.612;2023-08-06T09:50:53;1004.1;;;31.7;43.7
53699;BME280;68408;53.952;27.612;2023-08-06T09:55:43;1004;;;31.8;43.7
53699;BME280;68408;53.952;27.612;2023-08-06T10:00:29;1004;;;31.8;43.6
53699;BME280;68408;53.952;27.612;2023-08-06T10:05:27;1004;;;31.8;43.9
53699;BME280;68408;53.952;27.612;2023-08-06T10:10:53;1003.9;;;31.8;43.1
53699;BME280;68408;53.952;27.612;2023-08-06T10:15:22;1003.9;;;31.9;43.4
53699;BME280;68408;53.952;27.612;2023-08-06T10:20:15;1003.8;;;32.3;43
53699;BME280;68408;53.952;27.612;2023-08-06T10:25:43;1003.8;;;32.6;42.5
53699;BME280;68408;53.952;27.612;2023-08-06T10:30:44;1003.7;;;32.6;41.7
53699;BME280;68408;53.952;27.612;2023-08-06T10:35:53;1003.7;;;32.7;41.3
53699;BME280;68408;53.952;27.612;2023-08-06T10:40:21;1003.7;;;32.8;41
53699;BME280;68408;53.952;27.612;2023-08-06T10:45:21;1003.6;;;32.8;40.3
53699;BME280;68408;53.952;27.612;2023-08-06T10:50:21;1003.6;;;32.7;40.2
53699;BME280;68408;53.952;27.612;2023-08-06T10:55:53;1003.5;;;32.6;40.5
53699;BME280;68408;53.952;27.612;2023-08-06T11:00:43;1003.4;;;32.7;40.6
53699;BME280;68408;53.952;27.612;2023-08-06T11:05:48;1003.4;;;32.7;40.6
53699;BME280;68408;53.952;27.612;2023-08-06T11:10:53;1003.3;;;32.7;40
53699;BME280;68408;53.952;27.612;2023-08-06T11:15:43;1003.2;;;32.6;40.3
53699;BME280;68408;53.952;27.612;2023-08-06T11:20:22;1003.2;;;32.6;39.9
53699;BME280;68408;53.952;27.612;2023-08-06T11:25:27;1003.1;;;32.4;39.9
53699;BME280;68408;53.952;27.612;2023-08-06T11:30:53;1003.1;;;32.2;40.2
53699;BME280;68408;53.952;27.612;2023-08-06T11:35:54;1003;;;32.3;40.4
53699;BME280;68408;53.952;27.612;2023-08-06T11:40:53;1002.9;;;32.4;40.6
53699;BME280;68408;53.952;27.612;2023-08-06T11:45:55;1002.9;;;32.3;40.2
53699;BME280;68408;53.952;27.612;2023-08-06T11:50:45;1002.8;;;32.3;40.7
53699;BME280;68408;53.952;27.612;2023-08-06T11:55:31;1002.7;;;32.4;40.3
53699;BME280;68408;53.952;27.612;2023-08-06T12:00:45;1002.7;;;32.5;40.3
53699;BME280;68408;53.952;27.612;2023-08-06T12:05:55;1002.7;;;32.6;39.9
53699;BME280;68408;53.952;27.612;2023-08-06T12:10:39;1002.6;;;32.7;39.8
53699;BME280;68408;53.952;27.612;2023-08-06T12:15:29;1002.4;;;32.9;39.5
53699;BME280;68408;53.952;27.612;2023-08-06T12:20:55;1002.4;;;32.9;39.2
53699;BME280;68408;53.952;27.612;2023-08-06T12:25:15;1002.3;;;32.8;39.2
53699;BME280;68408;53.952;27.612;2023-08-06T12:30:29;1002.2;;;32.9;39
53699;BME280;68408;53.952;27.612;2023-08-06T12:35:15;1002.2;;;32.8;38.9
53699;BME280;68408;53.952;27.612;2023-08-06T12:40:39;1002.2;;;32.8;39
53699;BME280;68408;53.952;27.612;2023-08-06T12:45:25;1002.1;;;32.8;38.8
53699;BME280;68408;53.952;27.612;2023-08-06T12:50:45;1002;;;32.9;38.7
53699;BME280;68408;53.952;27.612;2023-08-06T12:55:21;1001.8;;;32.8;38.3
53699;BME280;68408;53.952;27.612;2023-08-06T13:00:15;1001.8;;;32.9;38.6
53699;BME280;68408;53.952;27.612;2023-08-06T13:05:21;1001.6;;;33;37.8
53699;BME280;68408;53.952;27.612;2023-08-06T13:10:29;1001.6;;;33.1;37.7
53699;BME280;68408;53.952;27.612;2023-08-06T13:15:29;1001.6;;;32.9;37.2
53699;BME280;68408;53.952;27.612;2023-08-06T13:20:39;1001.5;;;32.9;37.6
53699;BME280;68408;53.952;27.612;2023-08-06T13:25:55;1001.4;;;33.1;37.9
53699;BME280;68408;53.952;27.612;2023-08-06T13:30:19;1001.4;;;33;37.7
53699;BME280;68408;53.952;27.612;2023-08-06T13:35:15;1001.4;;;33;37.8
53699;BME280;68408;53.952;27.612;2023-08-06T13:40:55;1001.3;;;33;37.7
53699;BME280;68408;53.952;27.612;2023-08-06T13:45:29;1001.3;;;32.9;37.9
53699;BME280;68408;53.952;27.612;2023-08-06T13:50:29;1001.1;;;32.9;37.9
53699;BME280;68408;53.952;27.612;2023-08-06T13:55:29;1001.1;;;32.9;38.1
53699;BME280;68408;53.952;27.612;2023-08-06T14:00:45;1001;;;32.9;38.2
53699;BME280;68408;53.952;27.612;2023-08-06T14:05:21;1000.9;;;32.8;37.7
53699;BME280;68408;53.952;27.612;2023-08-06T14:10:16;1000.9;;;32.8;37.5
53699;BME280;68408;53.952;27.612;2023-08-06T14:15:55;1000.9;;;32.9;37.5
53699;BME280;68408;53.952;27.612;2023-08-06T14:20:45;1000.8;;;33;37.2
53699;BME280;68408;53.952;27.612;2023-08-06T14:25:32;1000.8;;;32.9;37
53699;BME280;68408;53.952;27.612;2023-08-06T14:30:35;1000.8;;;32.8;37.3
53699;BME280;68408;53.952;27.612;2023-08-06T14:35:55;1000.7;;;32.8;37.3
53699;BME280;68408;53.952;27.612;2023-08-06T14:40:21;1000.6;;;32.9;37.5
53699;BME280;68408;53.952;27.612;2023-08-06T14:45:27;1000.6;;;32.9;37.3
53699;BME280;68408;53.952;27.612;2023-08-06T14:50:45;1000.6;;;33;37.1
53699;BME280;68408;53.952;27.612;2023-08-06T14:55:55;1000.5;;;33;37.2
53699;BME280;68408;53.952;27.612;2023-08-06T15:00:55;1000.5;;;33;37.2
53699;BME280;68408;53.952;27.612;2023-08-06T15:05:35;1000.6;;;32.9;37.3
53699;BME280;68408;53.952;27.612;2023-08-06T15:10:15;1000.5;;;32.9;37.5
53699;BME280;68408;53.952;27.612;2023-08-06T15:15:15;1000.5;;;33;37.6
53699;BME280;68408;53.952;27.612;2023-08-06T15:20:55;1000.5;;;32.9;37.3
53699;BME280;68408;53.952;27.612;2023-08-06T15:25:45;1000.6;;;32.9;36.9
53699;BME280;68408;53.952;27.612;2023-08-06T15:30:48;1000.6;;;32.9;37.2
53699;BME280;68408;53.952;27.612;2023-08-06T15:35:53;1000.5;;;32.9;37.1
53699;BME280;68408;53.952;27.612;2023-08-06T15:40:17;1000.5;;;32.8;37.2
53699;BME280;68408;53.952;27.612;2023-08-06T15:45:15;1000.5;;;32.9;36.9
53699;BME280;68408;53.952;27.612;2023-08-06T15:50:37;1000.5;;;32.8;36.8
53699;BME280;68408;53.952;27.612;2023-08-06T15:55:39;1000.6;;;32.8;36.9
53699;BME280;68408;53.952;27.612;2023-08-06T16:00:55;1000.6;;;32.8;37
53699;BME280;68408;53.952;27.612;2023-08-06T16:05:55;1000.6;;;33;37
53699;BME280;68408;53.952;27.612;2023-08-06T16:10:56;1000.5;;;32.9;37.1
53699;BME280;68408;53.952;27.612;2023-08-06T16:15:45;1000.6;;;32.9;37.2
53699;BME280;68408;53.952;27.612;2023-08-06T16:20:41;1000.6;;;32.8;37.4
53699;BME280;68408;53.952;27.612;2023-08-06T16:25:45;1000.6;;;32.7;37.5
53699;BME280;68408;53.952;27.612;2023-08-06T16:30:55;1000.6;;;32.7;37.7
53699;BME280;68408;53.952;27.612;2023-08-06T16:35:39;1000.7;;;32.6;38.1
53699;BME280;68408;53.952;27.612;2023-08-06T16:40:15;1000.7;;;32.6;38.4
53699;BME280;68408;53.952;27.612;2023-08-06T16:45:55;1000.6;;;32.5;38.8
53699;BME280;68408;53.952;27.612;2023-08-06T16:50:39;1000.6;;;32.2;39.3
53699;BME280;68408;53.952;27.612;2023-08-06T16:55:21;1000.6;;;32;39.8
53699;BME280;68408;53.952;27.612;2023-08-06T17:00:25;1000.5;;;31.9;40.2
53699;BME280;68408;53.952;27.612;2023-08-06T17:05:23;1000.5;;;31.6;40.6
53699;BME280;68408;53.952;27.612;2023-08-06T17:10:33;1000.5;;;31.4;41.1
53699;BME280;68408;53.952;27.612;2023-08-06T17:15:17;1000.4;;;31.2;41.3
53699;BME280;68408;53.952;27.612;2023-08-06T17:20:55;1000.4;;;31.1;41.7
53699;BME280;68408;53.952;27.612;2023-08-06T17:25:23;1000.3;;;30.9;41.9
53699;BME280;68408;53.952;27.612;2023-08-06T17:30:23;1000.3;;;30.8;42.1
53699;BME280;68408;53.952;27.612;2023-08-06T17:35:29;1000.2;;;30.6;42.5
53699;BME280;68408;53.952;27.612;2023-08-06T17:40:23;1000.2;;;30.5;42.7
53699;BME280;68408;53.952;27.612;2023-08-06T17:45:45;1000.2;;;30.4;43.1
53699;BME280;68408;53.952;27.612;2023-08-06T17:50:55;1000.1;;;30.3;43.4
53699;BME280;68408;53.952;27.612;2023-08-06T17:55:21;1000.1;;;30.1;43.7
53699;BME280;68408;53.952;27.612;2023-08-06T18:00:15;1000.1;;;30;44.1
53699;BME280;68408;53.952;27.612;2023-08-06T18:05:55;1000;;;29.9;44.5
53699;BME280;68408;53.952;27.612;2023-08-06T18:10:39;1000;;;29.8;44.7
53699;BME280;68408;53.952;27.612;2023-08-06T18:15:15;1000.1;;;29.7;44.9
53699;BME280;68408;53.952;27.612;2023-08-06T18:20:39;1000;;;29.6;45.3
53699;BME280;68408;53.952;27.612;2023-08-06T18:25:45;1000;;;29.5;45.4
53699;BME280;68408;53.952;27.612;2023-08-06T18:30:15;1000;;;29.4;45.6
53699;BME280;68408;53.952;27.612;2023-08-06T18:35:15;999.9;;;29.3;45.9
53699;BME280;68408;53.952;27.612;2023-08-06T18:40:56;999.9;;;29.3;46.2
53699;BME280;68408;53.952;27.612;2023-08-06T18:45:39;999.8;;;29.2;46.4
53699;BME280;68408;53.952;27.612;2023-08-06T18:50:39;999.8;;;29.1;46.6
53699;BME280;68408;53.952;27.612;2023-08-06T18:55:35;999.7;;;29;46.9
53699;BME280;68408;53.952;27.612;2023-08-06T19:00:55;999.7;;;29;47.2
53699;BME280;68408;53.952;27.612;2023-08-06T19:05:15;999.6;;;28.9;47.5
53699;BME280;68408;53.952;27.612;2023-08-06T19:10:15;999.6;;;28.9;47.8
53699;BME280;68408;53.952;27.612;2023-08-06T19:15:46;999.5;;;28.8;47.9
53699;BME280;68408;53.952;27.612;2023-08-06T19:20:45;999.4;;;28.7;48.2
53699;BME280;68408;53.952;27.612;2023-08-06T19:25:53;999.4;;;28.7;48.5
53699;BME280;68408;53.952;27.612;2023-08-06T19:30:15;999.3;;;28.6;48.8
53699;BME280;68408;53.952;27.612;2023-08-06T19:35:21;999.3;;;28.5;49
53699;BME280;68408;53.952;27.612;2023-08-06T19:40:21;999.2;;;28.5;49.2
53699;BME280;68408;53.952;27.612;2023-08-06T19:45:55;999.1;;;28.5;49.4
53699;BME280;68408;53.952;27.612;2023-08-06T19:50:50;999.1;;;28.4;49.7
53699;BME280;68408;53.952;27.612;2023-08-06T19:55:37;998.9;;;28.3;49.9
53699;BME280;68408;53.952;27.612;2023-08-06T20:00:55;998.9;;;28.3;50.2
53699;BME280;68408;53.952;27.612;2023-08-06T20:05:45;998.8;;;28.2;50.4
53699;BME280;68408;53.952;27.612;2023-08-06T20:10:21;998.8;;;28.2;50.6
53699;BME280;68408;53.952;27.612;2023-08-06T20:15:25;998.8;;;28.1;50.7
53699;BME280;68408;53.952;27.612;2023-08-06T20:20:53;998.7;;;28.1;51
53699;BME280;68408;53.952;27.612;2023-08-06T20:25:55;998.6;;;28.1;51.1
53699;BME280;68408;53.952;27.612;2023-08-06T20:30:55;998.6;;;28;51.3
53699;BME280;68408;53.952;27.612;2023-08-06T20:35:55;998.6;;;28;51.4
53699;BME280;68408;53.952;27.612;2023-08-06T20:40:45;998.6;;;28;51.4
53699;BME280;68408;53.952;27.612;2023-08-06T20:45:21;998.5;;;28;51.4
53699;BME280;68408;53.952;27.612;2023-08-06T20:50:45;998.4;;;28;51.3
53699;BME280;68408;53.952;27.612;2023-08-06T20:55:57;998.4;;;28;51.5
53699;BME280;68408;53.952;27.612;2023-08-06T21:00:39;998.3;;;28;51.6
53699;BME280;68408;53.952;27.612;2023-08-06T21:05:21;998.3;;;27.9;51.7
53699;BME280;68408;53.952;27.612;2023-08-06T21:10:55;998.2;;;27.9;51.8
53699;BME280;68408;53.952;27.612;2023-08-06T21:15:45;998.2;;;27.9;51.7
53699;BME280;68408;53.952;27.612;2023-08-06T21:20:15;998.1;;;27.9;51.8
53699;BME280;68408;53.952;27.612;2023-08-06T21:25:29;998;;;27.9;52
53699;BME280;68408;53.952;27.612;2023-08-06T21:30:29;998;;;27.9;52
53699;BME280;68408;53.952;27.612;2023-08-06T21:35:23;998.1;;;27.8;52.1
53699;BME280;68408;53.952;27.612;2023-08-06T21:40:59;998;;;27.8;52.1
53699;BME280;68408;53.952;27.612;2023-08-06T21:45:35;997.9;;;27.8;52.3
53699;BME280;68408;53.952;27.612;2023-08-06T21:50:15;998;;;27.8;52.3
53699;BME280;68408;53.952;27.612;2023-08-06T21:55:39;997.9;;;27.8;52.4
53699;BME280;68408;53.952;27.612;2023-08-06T22:00:23;997.8;;;27.7;52.6
53699;BME280;68408;53.952;27.612;2023-08-06T22:05:29;997.9;;;27.7;52.8
53699;BME280;68408;53.952;27.612;2023-08-06T22:10:43;997.8;;;27.7;52.8
53699;BME280;68408;53.952;27.612;2023-08-06T22:15:55;997.8;;;27.6;52.9
53699;BME280;68408;53.952;27.612;2023-08-06T22:20:40;997.7;;;27.6;53
53699;BME280;68408;53.952;27.612;2023-08-06T22:25:15;997.6;;;27.6;53.1
53699;BME280;68408;53.952;27.612;2023-08-06T22:30:55;997.6;;;27.5;53.1
53699;BME280;68408;53.952;27.612;2023-08-06T22:35:16;997.5;;;27.6;53
53699;BME280;68408;53.952;27.612;2023-08-06T22:40:29;997.4;;;27.5;53
53699;BME280;68408;53.952;27.612;2023-08-06T22:45:15;997.4;;;27.5;52.9
53699;BME280;68408;53.952;27.612;2023-08-06T22:50:45;997.3;;;27.6;52.8
53699;BME280;68408;53.952;27.612;2023-08-06T22:55:15;997.2;;;27.5;52.7
53699;BME280;68408;53.952;27.612;2023-08-06T23:00:35;997.2;;;27.6;52.5
53699;BME280;68408;53.952;27.612;2023-08-06T23:05:55;997.3;;;27.6;52.4
53699;BME280;68408;53.952;27.612;2023-08-06T23:10:45;997.3;;;27.6;52.3
53699;BME280;68408;53.952;27.612;2023-08-06T23:15:23;997.2;;;27.6;52.3
53699;BME280;68408;53.952;27.612;2023-08-06T23:20:21;997;;;27.6;52
53699;BME280;68408;53.952;27.612;2023-08-06T23:25:55;996.9;;;27.6;51.9
53699;BME280;68408;53.952;27.612;2023-08-06T23:30:15;996.8;;;27.6;51.7
53699;BME280;68408;53.952;27.612;2023-08-06T23:35:15;996.7;;;27.7;51.6
53699;BME280;68408;53.952;27.612;2023-08-06T23:40:31;996.6;;;27.7;51.5
53699;BME280;68408;53.952;27.612;2023-08-06T23:45:45;996.7;;;27.7;51.5
53699;BME280;68408;53.952;27.612;2023-08-06T23:50:55;996.6;;;27.6;51.6
53699;BME280;68408;53.952;27.612;2023-08-06T23:55:35;996.5;;;27.6;51.6
